Terminal Aerodrome Forecast
Issued by NWS

Home | Current Version | Previous Version | Text Only | Print | Product List | Glossary On
Versions: 1 2 3 4 5 6 7 8 9 10 11 12 13 14 15 16 17 18
509
FTUS41 KAKQ 291146 CCA
TAFPHF
TAF COR
KPHF 291146Z 2912/3012 28010KT P6SM BKN015
     FM291400 33007KT P6SM BKN050
     FM292200 01005KT P6SM BKN100
     FM300500 07004KT P6SM SCT250=

USA.gov is the U.S. government's official web portal to all federal, state and local government web resources and services.